This is the latest recevied weather packets stored in our database for station/object HS9UAC-10. If no packets are shown the sender has not sent any weather packets the latest 10 day(s).
| Time | Temp. | Humidity | Pressure | Rain* | Wind** | Luminosity | Snow |
|---|---|---|---|---|---|---|---|
| 1777308644 | 34.44° C | 79% | 1007 hPa | - | - | 0 W/m² | - |
| 1777307719 | 34.44° C | 79% | 1007 hPa | - | - | 0 W/m² | - |
| 1777306795 | 35° C | 76% | 1008 hPa | - | - | 0 W/m² | - |
| 1777305870 | 35° C | 77% | 1008 hPa | - | - | 0 W/m² | - |
| 1777304946 | 33.89° C | 84% | 1008 hPa | - | - | 0 W/m² | - |
| 1777304021 | 33.89° C | 85% | 1008 hPa | - | - | 0 W/m² | - |
| 1777303097 | 33.33° C | 85% | 1008 hPa | - | - | 0 W/m² | - |
| 1777302172 | 33.33° C | 86% | 1008 hPa | - | - | 0 W/m² | - |
| 1777301247 | 34.44° C | 81% | 1008 hPa | - | - | 0 W/m² | - |
| 1777300323 | 33.89° C | 80% | 1008 hPa | - | - | 0 W/m² | - |
| 1777299398 | 34.44° C | 79% | 1008 hPa | - | - | 0 W/m² | - |
| 1777298474 | 33.89° C | 81% | 1008 hPa | - | - | 0 W/m² | - |
| 1777297524 | 34.44° C | 78% | 1007 hPa | - | - | 0 W/m² | - |
| 1777296689 | 34.44° C | 78% | 1007 hPa | - | - | 0 W/m² | - |
| 1777295765 | 34.44° C | 75% | 1007 hPa | - | - | 0 W/m² | - |
| 1777294840 | 35° C | 74% | 1007 hPa | - | - | 0 W/m² | - |
| 1777293916 | 35° C | 73% | 1006 hPa | - | - | 0 W/m² | - |
| 1777292991 | 34.44° C | 72% | 1006 hPa | - | - | 0 W/m² | - |
| 1777292067 | 35° C | 73% | 1006 hPa | - | - | 0 W/m² | - |
| 1777291142 | 35.56° C | 72% | 1006 hPa | - | - | 0 W/m² | - |
| 1777291041 | 35° C | 74% | 1006 hPa | - | - | 0 W/m² | - |
| 1777290117 | 36.11° C | 69% | 1006 hPa | - | - | 0 W/m² | - |
| 1777289192 | 36.67° C | 65% | 1006 hPa | - | - | 0 W/m² | - |
| 1777288267 | 36.11° C | 66% | 1005 hPa | - | - | 0 W/m² | - |
| 1777287343 | 37.22° C | 63% | 1005 hPa | - | - | 0 W/m² | - |
* Rain since midnight (hover to see other rain measurements)
** Current wind speed in m/s (hover to see current wind gust speed)